Salonica, Greece
Current Conditions -  °F | °C
As of 11:20 AM on Thursday 18 Dec 2014 (Local Time) from LGTS Reporting Station
Moderate Fog Moderate Fog  
Wind Chill: 44°   Ceiling: 200
Heat Index: 46°   Visibility: 0.12mi
Dew Point: 46°   Wind: 6mph
Humidity: 100%   Direction: 290°WNW
Pressure: 30.03"   Gusts: NA
Location:  40.52°N, 22.97°E
Report Text: LGTS 180820Z 29005KT 0200 FG OVC002 08/08 Q1017 NOSIG
Loading
Personal Weather Stations






























Interactive Weather Map New forecast layout! Learn more

10-Day Weather Forecast

Advertisements
Track Severe Weather on mobile